createdAt,value
2019-02-27T00:00:16.728Z,48.87
2019-02-27T00:02:45.949Z,50.20
2019-02-27T00:05:15.403Z,51.87
2019-02-27T00:07:44.738Z,47.97
2019-02-27T00:10:15.397Z,47.80
2019-02-27T00:12:51.766Z,50.43
2019-02-27T00:15:19.081Z,48.43
2019-02-27T00:17:52.113Z,53.43
2019-02-27T00:20:21.367Z,52.77
2019-02-27T00:22:52.227Z,52.30
2019-02-27T00:25:21.385Z,46.40
2019-02-27T00:27:52.669Z,44.10
2019-02-27T00:30:27.807Z,46.87
2019-02-27T00:32:54.350Z,50.60
2019-02-27T00:35:23.594Z,51.73
2019-02-27T00:37:56.220Z,43.97
2019-02-27T00:40:25.463Z,43.77
2019-02-27T00:42:55.670Z,48.47
2019-02-27T00:45:26.593Z,46.90
2019-02-27T00:47:55.799Z,43.23
2019-02-27T00:50:25.313Z,48.93
2019-02-27T00:53:00.092Z,49.00
2019-02-27T00:55:29.545Z,50.80
2019-02-27T00:58:00.429Z,42.07
2019-02-27T01:00:30.060Z,45.03
2019-02-27T01:02:59.329Z,48.70
2019-02-27T01:05:28.543Z,46.73
2019-02-27T01:07:57.805Z,44.40
2019-02-27T01:10:27.184Z,44.33
2019-02-27T01:12:58.201Z,43.67
2019-02-27T01:15:27.833Z,47.57
2019-02-27T01:17:57.465Z,48.77
2019-02-27T01:20:27.341Z,44.20
2019-02-27T01:22:56.555Z,43.43
2019-02-27T01:25:26.227Z,42.47
2019-02-27T01:27:55.440Z,45.53
2019-02-27T01:30:25.267Z,44.63
2019-02-27T01:32:55.376Z,44.90
2019-02-27T01:35:24.549Z,42.07
2019-02-27T01:37:53.797Z,47.93
2019-02-27T01:40:23.277Z,44.00
2019-02-27T01:42:52.529Z,47.77
2019-02-27T01:45:21.787Z,50.03
2019-02-27T01:47:51.046Z,42.43
2019-02-27T01:50:31.938Z,40.10
2019-02-27T01:53:01.813Z,48.57
2019-02-27T01:55:31.115Z,40.00
2019-02-27T01:58:19.446Z,43.93
2019-02-27T02:00:49.001Z,41.97
2019-02-27T02:03:18.260Z,44.70
2019-02-27T02:05:48.715Z,51.37
2019-02-27T02:08:18.292Z,44.63
2019-02-27T02:10:47.825Z,44.03
2019-02-27T02:14:01.046Z,47.07
2019-02-27T02:16:46.369Z,47.70
2019-02-27T02:19:44.712Z,46.33
2019-02-27T02:22:32.186Z,50.20
2019-02-27T02:26:03.808Z,43.57
2019-02-27T02:29:10.498Z,47.07
2019-02-27T02:31:51.007Z,49.20
2019-02-27T02:34:52.723Z,40.63
2019-02-27T02:37:40.384Z,43.63
2019-02-27T02:40:31.142Z,41.60
2019-02-27T02:43:29.540Z,41.03
2019-02-27T02:46:08.779Z,46.43
2019-02-27T02:49:06.509Z,44.87
2019-02-27T02:52:15.542Z,45.17
2019-02-27T02:55:14.278Z,40.63
2019-02-27T02:58:17.590Z,41.07
2019-02-27T03:01:21.518Z,40.37
2019-02-27T03:04:37.776Z,42.77
2019-02-27T03:07:45.684Z,40.33
2019-02-27T03:10:49.057Z,45.70
2019-02-27T03:13:50.371Z,42.17
2019-02-27T03:16:46.132Z,45.07
2019-02-27T03:19:57.429Z,40.73
2019-02-27T03:23:05.184Z,46.77
2019-02-27T03:26:03.911Z,38.30
2019-02-27T03:29:15.749Z,46.77
2019-02-27T03:32:24.701Z,39.13
2019-02-27T03:35:47.437Z,41.67
2019-02-27T03:39:19.075Z,42.17
2019-02-27T03:42:24.993Z,43.63
2019-02-27T03:45:32.894Z,48.53
2019-02-27T03:48:46.106Z,44.50
2019-02-27T03:52:00.650Z,45.40
2019-02-27T03:55:18.736Z,42.30
2019-02-27T03:58:17.253Z,50.93
2019-02-27T04:01:12.836Z,45.07
2019-02-27T04:04:11.221Z,51.90
2019-02-27T04:07:24.460Z,41.43
2019-02-27T04:09:55.416Z,42.93
2019-02-27T04:12:24.617Z,43.83
2019-02-27T04:14:53.893Z,44.43
2019-02-27T04:17:30.263Z,52.40
2019-02-27T04:20:00.806Z,45.53
2019-02-27T04:22:36.225Z,44.53
2019-02-27T04:25:04.725Z,40.43
2019-02-27T04:27:33.954Z,36.40
2019-02-27T04:30:03.277Z,45.37
2019-02-27T04:32:33.937Z,42.83
2019-02-27T04:35:05.854Z,32.60
2019-02-27T04:37:38.207Z,52.83
2019-02-27T04:40:28.923Z,41.40
2019-02-27T04:42:59.381Z,45.70
2019-02-27T04:45:29.277Z,41.20
2019-02-27T04:47:58.553Z,40.93
2019-02-27T04:50:27.833Z,48.00
2019-02-27T04:52:58.611Z,42.27
2019-02-27T04:55:28.278Z,50.37
2019-02-27T04:57:57.852Z,48.37
2019-02-27T05:00:27.381Z,46.83
2019-02-27T05:02:56.570Z,45.80
2019-02-27T05:05:25.745Z,49.87
2019-02-27T05:07:55.144Z,58.93
2019-02-27T05:10:27.702Z,61.97
2019-02-27T05:13:01.528Z,61.73
2019-02-27T05:15:30.833Z,63.17
2019-02-27T05:18:00.073Z,73.87
2019-02-27T05:20:31.068Z,65.37
2019-02-27T05:23:01.558Z,73.33
2019-02-27T05:25:30.821Z,63.93
2019-02-27T05:28:01.558Z,61.40
2019-02-27T05:30:32.488Z,67.63
2019-02-27T05:33:02.153Z,93.33
2019-02-27T05:35:32.239Z,84.43
2019-02-27T05:38:01.460Z,58.27
2019-02-27T05:40:30.630Z,56.27
2019-02-27T05:43:00.112Z,59.27
2019-02-27T05:45:31.205Z,53.90
2019-02-27T05:48:00.292Z,57.03
2019-02-27T05:50:34.035Z,64.57
2019-02-27T05:53:02.843Z,62.30
2019-02-27T05:55:32.042Z,62.03
2019-02-27T05:58:04.705Z,62.43
2019-02-27T06:00:33.951Z,57.63
2019-02-27T06:03:03.400Z,57.80
2019-02-27T06:05:36.018Z,55.03
2019-02-27T06:08:05.550Z,55.17
2019-02-27T06:10:34.791Z,57.20
2019-02-27T06:13:05.853Z,49.27
2019-02-27T06:15:40.186Z,54.83
2019-02-27T06:18:09.748Z,50.03
2019-02-27T06:20:41.755Z,43.33
2019-02-27T06:23:10.283Z,59.27
2019-02-27T06:25:39.872Z,48.03
2019-02-27T06:28:10.233Z,44.77
2019-02-27T06:30:39.735Z,48.83
2019-02-27T06:33:12.420Z,45.97
2019-02-27T06:35:41.634Z,42.33
2019-02-27T06:38:11.272Z,32.47
2019-02-27T06:40:42.348Z,41.13
2019-02-27T06:43:11.458Z,45.37
2019-02-27T06:45:45.185Z,41.67
2019-02-27T06:48:11.644Z,44.17
2019-02-27T06:50:40.898Z,37.53
2019-02-27T06:53:15.633Z,35.83
2019-02-27T06:55:41.992Z,35.43
2019-02-27T06:58:14.355Z,32.23
2019-02-27T07:00:42.887Z,37.07
2019-02-27T07:03:12.069Z,43.90
2019-02-27T07:05:48.167Z,37.97
2019-02-27T07:08:16.594Z,39.30
2019-02-27T07:10:46.081Z,45.00
2019-02-27T07:13:16.079Z,43.20
2019-02-27T07:15:48.263Z,42.73
2019-02-27T07:18:16.325Z,34.07
2019-02-27T07:20:45.617Z,40.47
2019-02-27T07:23:15.174Z,30.83
2019-02-27T07:25:44.433Z,36.30
2019-02-27T07:28:13.987Z,43.30
2019-02-27T07:30:43.239Z,36.83
2019-02-27T07:33:12.527Z,35.70
2019-02-27T07:35:42.125Z,45.17
2019-02-27T07:38:11.685Z,44.37
2019-02-27T07:40:43.017Z,30.80
2019-02-27T07:43:11.781Z,34.50
2019-02-27T07:45:42.775Z,35.60
2019-02-27T07:48:12.267Z,39.80
2019-02-27T07:50:41.501Z,30.43
2019-02-27T07:53:10.748Z,28.80
2019-02-27T07:55:39.909Z,30.60
2019-02-27T07:58:09.181Z,30.97
2019-02-27T08:00:39.107Z,42.63
2019-02-27T08:03:09.841Z,28.87
2019-02-27T08:05:41.569Z,29.13
2019-02-27T08:08:11.371Z,44.93
2019-02-27T08:10:41.781Z,36.60
2019-02-27T08:13:10.965Z,40.70
2019-02-27T08:15:40.207Z,34.00
2019-02-27T08:18:09.613Z,35.10
2019-02-27T08:20:40.511Z,31.70
2019-02-27T08:23:09.706Z,32.07
2019-02-27T08:25:38.884Z,34.47
2019-02-27T08:28:08.556Z,34.77
2019-02-27T08:30:37.753Z,25.90
2019-02-27T08:33:08.408Z,30.40
2019-02-27T08:35:38.274Z,30.10
2019-02-27T08:38:07.773Z,27.60
2019-02-27T08:40:36.947Z,26.10
2019-02-27T08:43:06.180Z,34.37
2019-02-27T08:45:37.794Z,33.30
2019-02-27T08:48:08.654Z,33.13
2019-02-27T08:50:38.159Z,31.87
2019-02-27T08:53:07.752Z,27.50
2019-02-27T08:55:39.339Z,26.70
2019-02-27T08:58:11.795Z,26.10
2019-02-27T09:00:41.560Z,33.27
2019-02-27T09:03:19.985Z,29.13
2019-02-27T09:05:42.177Z,28.20
2019-02-27T09:08:11.456Z,23.97
2019-02-27T09:10:41.040Z,26.33
2019-02-27T09:13:10.231Z,25.50
2019-02-27T09:15:41.577Z,24.17
2019-02-27T09:18:10.705Z,28.83
2019-02-27T09:20:39.962Z,25.00
2019-02-27T09:23:09.162Z,18.00
2019-02-27T09:25:38.720Z,26.43
2019-02-27T09:28:09.333Z,26.17
2019-02-27T09:30:39.023Z,25.97
2019-02-27T09:33:08.269Z,28.33
2019-02-27T09:35:38.701Z,23.20
2019-02-27T09:38:11.663Z,28.67
2019-02-27T09:40:40.858Z,27.80
2019-02-27T09:43:11.741Z,22.53
2019-02-27T09:45:46.149Z,23.20
2019-02-27T09:48:13.685Z,26.83
2019-02-27T09:50:47.569Z,27.50
2019-02-27T09:53:16.220Z,21.03
2019-02-27T09:55:47.896Z,24.00
2019-02-27T09:58:17.039Z,20.80
2019-02-27T10:00:50.312Z,23.27
2019-02-27T10:03:21.139Z,22.80
2019-02-27T10:05:51.227Z,20.13
2019-02-27T10:08:25.282Z,20.20
2019-02-27T10:10:53.185Z,22.13
2019-02-27T10:13:22.374Z,21.80
2019-02-27T10:15:52.619Z,26.53
2019-02-27T10:18:22.185Z,24.93
2019-02-27T10:20:51.901Z,26.33
2019-02-27T10:23:21.756Z,25.67
2019-02-27T10:25:53.249Z,25.50
2019-02-27T10:28:22.563Z,21.27
2019-02-27T10:30:52.334Z,23.23
2019-02-27T10:33:21.743Z,22.30
2019-02-27T10:35:51.401Z,20.52
2019-02-27T10:38:21.027Z,23.87
2019-02-27T10:40:50.393Z,20.05
2019-02-27T10:43:21.151Z,26.27
2019-02-27T10:45:50.506Z,25.25
2019-02-27T10:48:19.701Z,26.73
2019-02-27T10:50:49.265Z,33.75
2019-02-27T10:53:18.432Z,25.45
2019-02-27T10:55:49.250Z,26.65
2019-02-27T10:58:18.517Z,23.87
2019-02-27T11:00:48.691Z,24.27
2019-02-27T11:03:18.935Z,22.65
2019-02-27T11:05:52.037Z,27.80
2019-02-27T11:08:19.877Z,31.95
2019-02-27T11:10:49.137Z,27.48
2019-02-27T11:13:18.510Z,30.57
2019-02-27T11:15:47.763Z,23.50
2019-02-27T11:18:17.203Z,25.62
2019-02-27T11:20:46.655Z,29.50
2019-02-27T11:23:16.371Z,28.25
2019-02-27T11:25:46.166Z,29.30
2019-02-27T11:28:15.438Z,33.40
2019-02-27T11:30:44.906Z,27.42
2019-02-27T11:33:25.186Z,28.23
2019-02-27T11:35:47.303Z,29.57
2019-02-27T11:38:24.110Z,32.75
2019-02-27T11:40:55.407Z,28.05
2019-02-27T11:43:24.405Z,33.02
2019-02-27T11:45:57.967Z,34.67
2019-02-27T11:48:27.098Z,30.60
2019-02-27T11:50:56.749Z,29.92
2019-02-27T11:53:26.400Z,31.45
2019-02-27T11:55:55.679Z,31.55
2019-02-27T11:58:25.253Z,35.92
2019-02-27T12:00:54.621Z,32.35
2019-02-27T12:03:23.817Z,28.65
2019-02-27T12:05:53.078Z,29.40
2019-02-27T12:08:25.764Z,33.18
2019-02-27T12:10:53.953Z,28.87
2019-02-27T12:13:23.353Z,33.10
2019-02-27T12:15:55.790Z,33.30
2019-02-27T12:18:25.562Z,32.50
2019-02-27T12:20:54.970Z,34.08
2019-02-27T12:23:24.427Z,31.60
2019-02-27T12:25:53.802Z,32.30
2019-02-27T12:28:23.948Z,36.68
2019-02-27T12:30:53.253Z,31.95
2019-02-27T12:33:23.054Z,36.98
2019-02-27T12:35:54.696Z,31.85
2019-02-27T12:38:25.181Z,33.78
2019-02-27T12:40:58.301Z,34.38
2019-02-27T12:43:25.902Z,35.43
2019-02-27T12:45:57.666Z,37.42
2019-02-27T12:48:26.104Z,31.90
2019-02-27T12:50:55.476Z,33.28
2019-02-27T12:53:24.748Z,30.92
2019-02-27T12:55:54.236Z,38.88
2019-02-27T12:58:24.457Z,32.78
2019-02-27T13:00:54.600Z,35.90
2019-02-27T13:03:23.778Z,41.88
2019-02-27T13:05:52.987Z,35.10
2019-02-27T13:08:26.239Z,30.25
2019-02-27T13:10:55.464Z,32.17
2019-02-27T13:13:26.625Z,30.95
2019-02-27T13:15:55.838Z,38.50
2019-02-27T13:18:25.093Z,32.67
2019-02-27T13:20:54.784Z,30.88
2019-02-27T13:23:24.042Z,35.45
2019-02-27T13:25:53.531Z,30.32
2019-02-27T13:28:22.784Z,34.18
2019-02-27T13:30:51.975Z,36.42
2019-02-27T13:33:21.142Z,32.53
2019-02-27T13:35:52.646Z,31.57
2019-02-27T13:38:21.895Z,36.23
2019-02-27T13:40:51.085Z,34.85
2019-02-27T13:43:20.272Z,32.00
2019-02-27T13:45:49.555Z,32.23
2019-02-27T13:48:21.554Z,32.35
2019-02-27T13:50:50.818Z,38.70
2019-02-27T13:53:25.811Z,28.60
2019-02-27T13:55:51.859Z,32.65
2019-02-27T13:58:21.045Z,34.75
2019-02-27T14:00:53.722Z,32.67
2019-02-27T14:03:21.473Z,33.78
2019-02-27T14:05:50.726Z,35.17
2019-02-27T14:08:20.442Z,35.28
2019-02-27T14:10:50.501Z,37.30
2019-02-27T14:13:21.419Z,36.42
2019-02-27T14:15:50.669Z,35.20
2019-02-27T14:18:20.026Z,33.80
2019-02-27T14:20:49.200Z,37.40
2019-02-27T14:23:18.366Z,40.95
2019-02-27T14:25:47.613Z,32.40
2019-02-27T14:28:18.316Z,38.33
2019-02-27T14:30:50.450Z,36.95
2019-02-27T14:33:20.538Z,32.13
2019-02-27T14:35:52.803Z,34.98
2019-02-27T14:38:22.907Z,35.03
2019-02-27T14:40:54.231Z,42.03
2019-02-27T14:43:27.152Z,37.35
2019-02-27T14:45:54.571Z,34.63
2019-02-27T14:48:32.093Z,35.80
2019-02-27T14:51:01.818Z,38.33
2019-02-27T14:53:31.341Z,40.85
2019-02-27T14:56:00.931Z,36.90
2019-02-27T14:58:30.449Z,38.15
2019-02-27T15:00:59.692Z,38.17
2019-02-27T15:03:30.075Z,37.00
2019-02-27T15:05:59.424Z,34.92
2019-02-27T15:08:32.446Z,34.03
2019-02-27T15:11:01.645Z,33.30
2019-02-27T15:13:30.825Z,38.65
2019-02-27T15:16:00.103Z,38.15
2019-02-27T15:18:30.939Z,41.63
2019-02-27T15:21:00.476Z,35.10
2019-02-27T15:23:29.638Z,43.10
2019-02-27T15:25:58.845Z,41.98
2019-02-27T15:28:33.065Z,36.05
2019-02-27T15:30:59.070Z,34.95
2019-02-27T15:33:28.611Z,46.68
2019-02-27T15:35:58.195Z,38.48
2019-02-27T15:38:27.374Z,41.70
2019-02-27T15:40:56.993Z,41.53
2019-02-27T15:43:26.253Z,47.35
2019-02-27T15:45:56.113Z,41.63
2019-02-27T15:48:25.492Z,45.83
2019-02-27T15:50:57.371Z,41.57
2019-02-27T15:53:26.075Z,39.33
2019-02-27T15:55:55.323Z,46.90
2019-02-27T15:58:25.329Z,49.73
2019-02-27T16:00:55.731Z,40.70
2019-02-27T16:03:25.831Z,49.27
2019-02-27T16:05:55.072Z,47.20
2019-02-27T16:08:26.018Z,49.87
2019-02-27T16:10:55.562Z,51.90
2019-02-27T16:13:24.825Z,52.80
2019-02-27T16:15:54.348Z,51.23
2019-02-27T16:18:23.595Z,47.97
2019-02-27T16:20:52.787Z,56.67
2019-02-27T16:23:22.040Z,53.70
2019-02-27T16:25:53.732Z,51.57
2019-02-27T16:28:22.172Z,58.93
2019-02-27T16:30:57.853Z,49.90
2019-02-27T16:33:23.877Z,52.43
2019-02-27T16:35:54.039Z,53.67
2019-02-27T16:38:23.698Z,50.73
2019-02-27T16:40:53.646Z,50.93
2019-02-27T16:43:23.358Z,48.37
2019-02-27T16:45:52.697Z,50.40
2019-02-27T16:48:22.009Z,49.03
2019-02-27T16:50:51.249Z,45.73
2019-02-27T16:53:20.589Z,53.00
2019-02-27T16:55:49.890Z,56.30
2019-02-27T16:58:19.157Z,47.90
2019-02-27T17:00:48.936Z,43.30
2019-02-27T17:03:19.590Z,57.03
2019-02-27T17:05:49.779Z,52.27
2019-02-27T17:08:19.698Z,47.73
2019-02-27T17:10:51.664Z,47.13
2019-02-27T17:13:20.370Z,51.77
2019-02-27T17:16:00.163Z,51.13
2019-02-27T17:18:29.433Z,51.87
2019-02-27T17:20:59.397Z,50.77
2019-02-27T17:23:28.682Z,48.73
2019-02-27T17:26:03.433Z,50.70
2019-02-27T17:28:29.552Z,48.57
2019-02-27T17:31:02.081Z,57.80
2019-02-27T17:33:31.847Z,53.10
2019-02-27T17:36:01.134Z,60.13
2019-02-27T17:38:33.454Z,53.90
2019-02-27T17:41:02.987Z,54.83
2019-02-27T17:43:32.340Z,55.87
2019-02-27T17:46:01.726Z,53.90
2019-02-27T17:48:31.361Z,56.60
2019-02-27T17:51:05.757Z,58.43
2019-02-27T17:53:34.806Z,61.03
2019-02-27T17:56:04.154Z,65.27
2019-02-27T17:58:34.945Z,61.17
2019-02-27T18:01:05.789Z,62.13
2019-02-27T18:03:38.753Z,62.63
2019-02-27T18:06:06.053Z,65.57
2019-02-27T18:08:35.351Z,68.50
2019-02-27T18:11:04.948Z,69.27
2019-02-27T18:13:36.132Z,60.70
2019-02-27T18:16:05.323Z,66.27
2019-02-27T18:18:34.746Z,64.33
2019-02-27T18:21:04.238Z,71.20
2019-02-27T18:23:33.990Z,69.73
2019-02-27T18:26:03.697Z,64.27
2019-02-27T18:28:33.678Z,68.17
2019-02-27T18:31:03.682Z,64.03
2019-02-27T18:33:36.399Z,63.63
2019-02-27T18:36:05.945Z,72.33
2019-02-27T18:38:35.507Z,65.23
2019-02-27T18:41:04.763Z,68.27
2019-02-27T18:43:33.945Z,65.43
2019-02-27T18:46:03.236Z,61.00
2019-02-27T18:48:32.604Z,69.63
2019-02-27T18:51:01.834Z,70.23
2019-02-27T18:53:32.274Z,79.17
2019-02-27T18:56:02.738Z,74.47
2019-02-27T18:58:34.185Z,76.33
2019-02-27T19:01:04.197Z,66.77
2019-02-27T19:03:33.485Z,73.80
2019-02-27T19:06:02.674Z,78.33
2019-02-27T19:08:32.219Z,74.93
2019-02-27T19:11:01.404Z,75.40
2019-02-27T19:13:31.739Z,72.10
2019-02-27T19:16:01.755Z,68.97
2019-02-27T19:18:31.093Z,72.70
2019-02-27T19:21:02.753Z,66.30
2019-02-27T19:23:33.545Z,76.57
2019-02-27T19:26:02.742Z,64.67
2019-02-27T19:28:31.987Z,70.50
2019-02-27T19:31:01.238Z,67.17
2019-02-27T19:33:32.553Z,72.70
2019-02-27T19:36:02.779Z,69.87
2019-02-27T19:38:32.167Z,74.60
2019-02-27T19:41:04.113Z,69.73
2019-02-27T19:43:33.600Z,85.57
2019-02-27T19:46:03.184Z,63.80
2019-02-27T19:48:35.074Z,69.67
2019-02-27T19:51:06.672Z,65.93
2019-02-27T19:53:39.630Z,71.03
2019-02-27T19:56:08.482Z,67.23
2019-02-27T19:58:38.068Z,63.10
2019-02-27T20:01:09.918Z,68.70
2019-02-27T20:03:41.676Z,68.10
2019-02-27T20:06:11.502Z,67.97
2019-02-27T20:08:44.344Z,69.53
2019-02-27T20:11:11.825Z,68.80
2019-02-27T20:13:41.020Z,71.30
2019-02-27T20:16:13.060Z,74.53
2019-02-27T20:18:43.734Z,90.43
2019-02-27T20:21:13.623Z,89.57
2019-02-27T20:23:42.906Z,83.20
2019-02-27T20:26:14.296Z,72.57
2019-02-27T20:28:43.565Z,79.93
2019-02-27T20:31:17.991Z,72.03
2019-02-27T20:33:45.033Z,72.03
2019-02-27T20:36:14.189Z,89.37
2019-02-27T20:38:43.723Z,104.40
2019-02-27T20:41:12.963Z,92.03
2019-02-27T20:43:42.566Z,91.40
2019-02-27T20:46:14.749Z,83.13
2019-02-27T20:48:42.801Z,83.97
2019-02-27T20:51:12.401Z,87.53
2019-02-27T20:53:42.818Z,88.83
2019-02-27T20:56:13.222Z,87.80
2019-02-27T20:58:42.743Z,96.80
2019-02-27T21:01:13.793Z,87.17
2019-02-27T21:03:43.296Z,94.50
2019-02-27T21:06:13.012Z,99.80
2019-02-27T21:08:43.515Z,89.00
2019-02-27T21:11:13.227Z,81.30
2019-02-27T21:13:42.505Z,100.47
2019-02-27T21:16:13.540Z,85.53
2019-02-27T21:18:42.852Z,92.33
2019-02-27T21:21:12.489Z,91.80
2019-02-27T21:23:42.378Z,88.80
2019-02-27T21:26:12.958Z,91.97
2019-02-27T21:28:42.608Z,86.80
2019-02-27T21:31:11.887Z,92.70
2019-02-27T21:33:42.496Z,95.60
2019-02-27T21:36:13.027Z,97.80
2019-02-27T21:38:50.245Z,86.77
2019-02-27T21:41:17.659Z,85.30
2019-02-27T21:43:48.998Z,89.47
2019-02-27T21:46:21.558Z,88.63
2019-02-27T21:48:58.463Z,92.33
2019-02-27T21:51:24.297Z,90.77
2019-02-27T21:53:55.127Z,91.20
2019-02-27T21:56:26.575Z,102.00
2019-02-27T21:58:56.273Z,82.37
2019-02-27T22:01:27.039Z,92.73
2019-02-27T22:03:56.317Z,92.63
2019-02-27T22:06:27.503Z,89.93
2019-02-27T22:08:57.014Z,91.50
2019-02-27T22:11:27.043Z,89.07
2019-02-27T22:13:57.615Z,91.90
2019-02-27T22:16:29.517Z,88.03
2019-02-27T22:18:58.792Z,82.73
2019-02-27T22:21:28.113Z,93.63
2019-02-27T22:23:57.301Z,97.73
2019-02-27T22:26:26.801Z,88.37
2019-02-27T22:28:58.407Z,86.43
2019-02-27T22:31:27.694Z,95.20
2019-02-27T22:33:57.171Z,84.90
2019-02-27T22:36:26.338Z,79.60
2019-02-27T22:38:59.785Z,80.37
2019-02-27T22:41:27.111Z,86.50
2019-02-27T22:43:56.482Z,85.37
2019-02-27T22:46:27.045Z,84.37
2019-02-27T22:48:56.382Z,84.67
2019-02-27T22:51:25.923Z,92.20
2019-02-27T22:53:59.499Z,94.30
2019-02-27T22:56:28.575Z,85.67
2019-02-27T22:58:59.353Z,84.83
2019-02-27T23:01:41.773Z,88.33
2019-02-27T23:04:11.019Z,86.03
2019-02-27T23:06:40.191Z,88.07
2019-02-27T23:09:13.006Z,86.60
2019-02-27T23:11:43.046Z,86.57
2019-02-27T23:14:12.275Z,85.33
2019-02-27T23:16:41.457Z,76.40
2019-02-27T23:19:12.065Z,87.27
2019-02-27T23:21:42.256Z,83.43
2019-02-27T23:24:11.909Z,78.40
2019-02-27T23:26:41.257Z,82.30
2019-02-27T23:29:10.720Z,90.47
2019-02-27T23:31:39.898Z,85.13
2019-02-27T23:34:09.409Z,89.10
2019-02-27T23:36:38.579Z,86.97
2019-02-27T23:39:09.519Z,83.63
2019-02-27T23:41:57.828Z,88.83
2019-02-27T23:44:27.326Z,83.50
2019-02-27T23:46:57.526Z,90.87
2019-02-27T23:49:27.367Z,95.40
2019-02-27T23:51:56.554Z,85.63
2019-02-27T23:54:35.421Z,90.40
2019-02-27T23:57:02.708Z,83.10
2019-02-27T23:59:32.959Z,85.67
